sensor_id;sensor_type;location;lat;lon;timestamp;P1;durP1;ratioP1;P2;durP2;ratioP2
11490;SDS011;5802;52.832;4.758;2023-04-24T00:00:47;2.95;;;1.00;;
11490;SDS011;5802;52.832;4.758;2023-04-24T00:03:15;4.10;;;0.85;;
11490;SDS011;5802;52.832;4.758;2023-04-24T00:05:45;9.27;;;0.80;;
11490;SDS011;5802;52.832;4.758;2023-04-24T00:08:12;4.28;;;0.98;;
11490;SDS011;5802;52.832;4.758;2023-04-24T00:10:41;1.17;;;0.80;;
11490;SDS011;5802;52.832;4.758;2023-04-24T00:13:07;2.85;;;1.42;;
11490;SDS011;5802;52.832;4.758;2023-04-24T00:15:34;2.90;;;0.80;;
11490;SDS011;5802;52.832;4.758;2023-04-24T00:18:01;2.78;;;0.82;;
11490;SDS011;5802;52.832;4.758;2023-04-24T00:20:28;2.25;;;1.10;;
11490;SDS011;5802;52.832;4.758;2023-04-24T00:22:58;1.95;;;0.82;;
11490;SDS011;5802;52.832;4.758;2023-04-24T00:25:25;1.10;;;0.80;;
11490;SDS011;5802;52.832;4.758;2023-04-24T00:27:53;2.53;;;0.77;;
11490;SDS011;5802;52.832;4.758;2023-04-24T00:30:19;1.63;;;0.85;;
11490;SDS011;5802;52.832;4.758;2023-04-24T00:32:46;1.92;;;0.88;;
11490;SDS011;5802;52.832;4.758;2023-04-24T00:35:13;2.72;;;1.38;;
11490;SDS011;5802;52.832;4.758;2023-04-24T00:37:40;1.50;;;0.80;;
11490;SDS011;5802;52.832;4.758;2023-04-24T00:40:07;2.25;;;0.98;;
11490;SDS011;5802;52.832;4.758;2023-04-24T00:42:34;4.85;;;1.00;;
11490;SDS011;5802;52.832;4.758;2023-04-24T00:45:03;2.85;;;0.90;;
11490;SDS011;5802;52.832;4.758;2023-04-24T00:47:31;3.13;;;0.80;;
11490;SDS011;5802;52.832;4.758;2023-04-24T00:50:00;2.92;;;0.95;;
11490;SDS011;5802;52.832;4.758;2023-04-24T00:52:28;2.17;;;1.05;;
11490;SDS011;5802;52.832;4.758;2023-04-24T00:54:56;2.83;;;0.77;;
11490;SDS011;5802;52.832;4.758;2023-04-24T00:57:22;4.90;;;0.98;;
11490;SDS011;5802;52.832;4.758;2023-04-24T00:59:50;1.85;;;0.80;;
11490;SDS011;5802;52.832;4.758;2023-04-24T01:02:19;2.35;;;0.90;;
11490;SDS011;5802;52.832;4.758;2023-04-24T01:04:47;2.67;;;0.90;;
11490;SDS011;5802;52.832;4.758;2023-04-24T01:07:15;5.55;;;0.90;;
11490;SDS011;5802;52.832;4.758;2023-04-24T01:09:43;2.00;;;0.70;;
11490;SDS011;5802;52.832;4.758;2023-04-24T01:12:12;1.77;;;0.80;;
11490;SDS011;5802;52.832;4.758;2023-04-24T01:14:38;1.15;;;0.80;;
11490;SDS011;5802;52.832;4.758;2023-04-24T01:17:05;1.45;;;0.70;;
11490;SDS011;5802;52.832;4.758;2023-04-24T01:19:35;1.65;;;0.70;;
11490;SDS011;5802;52.832;4.758;2023-04-24T01:22:02;1.48;;;1.00;;
11490;SDS011;5802;52.832;4.758;2023-04-24T01:24:31;1.80;;;0.70;;
11490;SDS011;5802;52.832;4.758;2023-04-24T01:26:58;2.20;;;0.73;;
11490;SDS011;5802;52.832;4.758;2023-04-24T01:29:25;0.93;;;0.60;;
11490;SDS011;5802;52.832;4.758;2023-04-24T01:31:52;2.60;;;0.90;;
11490;SDS011;5802;52.832;4.758;2023-04-24T01:34:21;1.17;;;0.57;;
11490;SDS011;5802;52.832;4.758;2023-04-24T01:36:47;1.20;;;0.80;;
11490;SDS011;5802;52.832;4.758;2023-04-24T01:39:15;1.85;;;0.70;;
11490;SDS011;5802;52.832;4.758;2023-04-24T01:41:43;1.75;;;0.70;;
11490;SDS011;5802;52.832;4.758;2023-04-24T01:44:10;1.23;;;0.80;;
11490;SDS011;5802;52.832;4.758;2023-04-24T01:46:36;1.25;;;1.10;;
11490;SDS011;5802;52.832;4.758;2023-04-24T01:49:04;1.52;;;0.80;;
11490;SDS011;5802;52.832;4.758;2023-04-24T01:51:30;3.80;;;0.63;;
11490;SDS011;5802;52.832;4.758;2023-04-24T01:53:57;2.83;;;0.80;;
11490;SDS011;5802;52.832;4.758;2023-04-24T01:56:24;3.63;;;0.93;;
11490;SDS011;5802;52.832;4.758;2023-04-24T01:58:52;1.20;;;0.63;;
11490;SDS011;5802;52.832;4.758;2023-04-24T02:01:20;1.35;;;0.70;;
11490;SDS011;5802;52.832;4.758;2023-04-24T02:03:49;0.95;;;0.50;;
11490;SDS011;5802;52.832;4.758;2023-04-24T02:06:16;2.13;;;1.00;;
11490;SDS011;5802;52.832;4.758;2023-04-24T02:08:43;1.23;;;0.70;;
11490;SDS011;5802;52.832;4.758;2023-04-24T02:11:09;0.77;;;0.68;;
11490;SDS011;5802;52.832;4.758;2023-04-24T02:13:36;0.68;;;0.52;;
11490;SDS011;5802;52.832;4.758;2023-04-24T02:16:04;1.25;;;0.70;;
11490;SDS011;5802;52.832;4.758;2023-04-24T02:18:31;0.80;;;0.52;;
11490;SDS011;5802;52.832;4.758;2023-04-24T02:20:57;2.03;;;0.80;;
11490;SDS011;5802;52.832;4.758;2023-04-24T02:23:24;1.33;;;0.68;;
11490;SDS011;5802;52.832;4.758;2023-04-24T02:25:52;0.95;;;0.50;;
11490;SDS011;5802;52.832;4.758;2023-04-24T02:28:19;1.50;;;0.70;;
11490;SDS011;5802;52.832;4.758;2023-04-24T02:30:46;1.10;;;0.63;;
11490;SDS011;5802;52.832;4.758;2023-04-24T02:33:14;0.70;;;0.55;;
11490;SDS011;5802;52.832;4.758;2023-04-24T02:35:40;0.95;;;0.63;;
11490;SDS011;5802;52.832;4.758;2023-04-24T02:38:07;1.55;;;0.68;;
11490;SDS011;5802;52.832;4.758;2023-04-24T02:40:34;0.77;;;0.50;;
11490;SDS011;5802;52.832;4.758;2023-04-24T02:43:00;1.00;;;0.40;;
11490;SDS011;5802;52.832;4.758;2023-04-24T02:45:27;1.55;;;0.52;;
11490;SDS011;5802;52.832;4.758;2023-04-24T02:47:54;1.63;;;0.63;;
11490;SDS011;5802;52.832;4.758;2023-04-24T02:50:22;1.13;;;0.60;;
11490;SDS011;5802;52.832;4.758;2023-04-24T02:52:49;1.70;;;0.73;;
11490;SDS011;5802;52.832;4.758;2023-04-24T02:55:15;1.17;;;0.63;;
11490;SDS011;5802;52.832;4.758;2023-04-24T02:57:42;1.67;;;0.85;;
11490;SDS011;5802;52.832;4.758;2023-04-24T03:00:09;1.08;;;0.60;;
11490;SDS011;5802;52.832;4.758;2023-04-24T03:02:36;1.27;;;0.60;;
11490;SDS011;5802;52.832;4.758;2023-04-24T03:05:03;0.65;;;0.50;;
11490;SDS011;5802;52.832;4.758;2023-04-24T03:07:32;1.50;;;0.60;;
11490;SDS011;5802;52.832;4.758;2023-04-24T03:09:59;0.93;;;0.45;;
11490;SDS011;5802;52.832;4.758;2023-04-24T03:12:25;0.50;;;0.50;;
11490;SDS011;5802;52.832;4.758;2023-04-24T03:14:52;1.00;;;0.80;;
11490;SDS011;5802;52.832;4.758;2023-04-24T03:17:19;1.38;;;0.77;;
11490;SDS011;5802;52.832;4.758;2023-04-24T03:19:46;1.27;;;0.60;;
11490;SDS011;5802;52.832;4.758;2023-04-24T03:22:12;1.25;;;0.63;;
11490;SDS011;5802;52.832;4.758;2023-04-24T03:24:40;1.88;;;0.57;;
11490;SDS011;5802;52.832;4.758;2023-04-24T03:27:07;0.65;;;0.57;;
11490;SDS011;5802;52.832;4.758;2023-04-24T03:29:34;1.80;;;0.80;;
11490;SDS011;5802;52.832;4.758;2023-04-24T03:32:00;0.90;;;0.50;;
11490;SDS011;5802;52.832;4.758;2023-04-24T03:34:27;0.70;;;0.65;;
11490;SDS011;5802;52.832;4.758;2023-04-24T03:36:54;0.50;;;0.47;;
11490;SDS011;5802;52.832;4.758;2023-04-24T03:39:20;0.90;;;0.68;;
11490;SDS011;5802;52.832;4.758;2023-04-24T03:41:48;1.00;;;0.45;;
11490;SDS011;5802;52.832;4.758;2023-04-24T03:44:15;1.83;;;0.60;;
11490;SDS011;5802;52.832;4.758;2023-04-24T03:46:42;0.63;;;0.45;;
11490;SDS011;5802;52.832;4.758;2023-04-24T03:49:08;0.68;;;0.50;;
11490;SDS011;5802;52.832;4.758;2023-04-24T03:51:35;1.25;;;0.60;;
11490;SDS011;5802;52.832;4.758;2023-04-24T03:54:02;0.85;;;0.60;;
11490;SDS011;5802;52.832;4.758;2023-04-24T03:56:28;1.02;;;0.55;;
11490;SDS011;5802;52.832;4.758;2023-04-24T03:58:56;0.90;;;0.40;;
11490;SDS011;5802;52.832;4.758;2023-04-24T04:01:23;1.17;;;0.50;;
11490;SDS011;5802;52.832;4.758;2023-04-24T04:03:51;1.40;;;0.50;;
11490;SDS011;5802;52.832;4.758;2023-04-24T04:06:17;2.55;;;1.13;;
11490;SDS011;5802;52.832;4.758;2023-04-24T04:08:44;2.00;;;0.70;;
11490;SDS011;5802;52.832;4.758;2023-04-24T04:11:11;1.38;;;0.57;;
11490;SDS011;5802;52.832;4.758;2023-04-24T04:13:37;1.05;;;0.50;;
11490;SDS011;5802;52.832;4.758;2023-04-24T04:16:05;1.20;;;0.60;;
11490;SDS011;5802;52.832;4.758;2023-04-24T04:18:32;1.00;;;0.68;;
11490;SDS011;5802;52.832;4.758;2023-04-24T04:20:59;1.23;;;0.52;;
11490;SDS011;5802;52.832;4.758;2023-04-24T04:23:26;0.70;;;0.60;;
11490;SDS011;5802;52.832;4.758;2023-04-24T04:25:53;0.77;;;0.50;;
11490;SDS011;5802;52.832;4.758;2023-04-24T04:28:19;0.95;;;0.55;;
11490;SDS011;5802;52.832;4.758;2023-04-24T04:30:46;1.25;;;0.50;;
11490;SDS011;5802;52.832;4.758;2023-04-24T04:33:14;0.60;;;0.43;;
11490;SDS011;5802;52.832;4.758;2023-04-24T04:35:41;0.88;;;0.70;;
11490;SDS011;5802;52.832;4.758;2023-04-24T04:38:08;1.75;;;0.60;;
11490;SDS011;5802;52.832;4.758;2023-04-24T04:40:35;0.88;;;0.65;;
11490;SDS011;5802;52.832;4.758;2023-04-24T04:43:02;0.70;;;0.63;;
11490;SDS011;5802;52.832;4.758;2023-04-24T04:45:29;0.60;;;0.50;;
11490;SDS011;5802;52.832;4.758;2023-04-24T04:47:55;0.80;;;0.70;;
11490;SDS011;5802;52.832;4.758;2023-04-24T04:50:23;1.83;;;0.85;;
11490;SDS011;5802;52.832;4.758;2023-04-24T04:52:50;0.70;;;0.57;;
11490;SDS011;5802;52.832;4.758;2023-04-24T04:55:17;1.17;;;0.80;;
11490;SDS011;5802;52.832;4.758;2023-04-24T04:57:44;0.93;;;0.80;;
11490;SDS011;5802;52.832;4.758;2023-04-24T05:00:12;0.60;;;0.60;;
11490;SDS011;5802;52.832;4.758;2023-04-24T05:02:39;1.05;;;0.80;;
11490;SDS011;5802;52.832;4.758;2023-04-24T05:05:06;1.50;;;0.93;;
11490;SDS011;5802;52.832;4.758;2023-04-24T05:07:35;1.02;;;0.80;;
11490;SDS011;5802;52.832;4.758;2023-04-24T05:10:02;1.63;;;0.90;;
11490;SDS011;5802;52.832;4.758;2023-04-24T05:12:29;4.07;;;0.80;;
11490;SDS011;5802;52.832;4.758;2023-04-24T05:14:55;1.95;;;0.90;;
11490;SDS011;5802;52.832;4.758;2023-04-24T05:17:22;0.70;;;0.70;;
11490;SDS011;5802;52.832;4.758;2023-04-24T05:19:49;1.58;;;0.70;;
11490;SDS011;5802;52.832;4.758;2023-04-24T05:22:16;1.58;;;0.82;;
11490;SDS011;5802;52.832;4.758;2023-04-24T05:24:45;1.17;;;0.90;;
11490;SDS011;5802;52.832;4.758;2023-04-24T05:27:11;2.33;;;0.90;;
11490;SDS011;5802;52.832;4.758;2023-04-24T05:29:38;1.67;;;1.10;;
11490;SDS011;5802;52.832;4.758;2023-04-24T05:32:05;1.08;;;0.88;;
11490;SDS011;5802;52.832;4.758;2023-04-24T05:34:33;0.80;;;0.80;;
11490;SDS011;5802;52.832;4.758;2023-04-24T05:37:00;1.85;;;0.90;;
11490;SDS011;5802;52.832;4.758;2023-04-24T05:39:26;0.85;;;0.82;;
11490;SDS011;5802;52.832;4.758;2023-04-24T05:41:54;2.05;;;0.95;;
11490;SDS011;5802;52.832;4.758;2023-04-24T05:44:23;1.17;;;0.90;;
11490;SDS011;5802;52.832;4.758;2023-04-24T05:46:49;1.40;;;0.88;;
11490;SDS011;5802;52.832;4.758;2023-04-24T05:49:16;2.35;;;1.15;;
11490;SDS011;5802;52.832;4.758;2023-04-24T05:51:42;1.63;;;1.00;;
11490;SDS011;5802;52.832;4.758;2023-04-24T05:54:09;2.60;;;1.38;;
11490;SDS011;5802;52.832;4.758;2023-04-24T05:56:37;2.72;;;1.20;;
11490;SDS011;5802;52.832;4.758;2023-04-24T05:59:05;5.28;;;1.13;;
11490;SDS011;5802;52.832;4.758;2023-04-24T06:01:32;2.95;;;1.15;;
11490;SDS011;5802;52.832;4.758;2023-04-24T06:03:59;3.03;;;1.30;;
11490;SDS011;5802;52.832;4.758;2023-04-24T06:06:25;2.63;;;1.13;;
11490;SDS011;5802;52.832;4.758;2023-04-24T06:08:53;3.05;;;1.20;;
11490;SDS011;5802;52.832;4.758;2023-04-24T06:11:20;2.55;;;1.33;;
11490;SDS011;5802;52.832;4.758;2023-04-24T06:13:47;1.75;;;1.23;;
11490;SDS011;5802;52.832;4.758;2023-04-24T06:16:15;4.72;;;1.30;;
11490;SDS011;5802;52.832;4.758;2023-04-24T06:18:42;1.50;;;1.10;;
11490;SDS011;5802;52.832;4.758;2023-04-24T06:21:10;3.33;;;1.20;;
11490;SDS011;5802;52.832;4.758;2023-04-24T06:23:36;1.92;;;1.20;;
11490;SDS011;5802;52.832;4.758;2023-04-24T06:26:03;2.03;;;1.25;;
11490;SDS011;5802;52.832;4.758;2023-04-24T06:28:30;2.65;;;1.30;;
11490;SDS011;5802;52.832;4.758;2023-04-24T06:30:57;2.35;;;1.20;;
11490;SDS011;5802;52.832;4.758;2023-04-24T06:33:25;2.58;;;1.20;;
11490;SDS011;5802;52.832;4.758;2023-04-24T06:35:51;1.63;;;1.23;;
11490;SDS011;5802;52.832;4.758;2023-04-24T06:38:18;2.97;;;1.70;;
11490;SDS011;5802;52.832;4.758;2023-04-24T06:40:45;1.63;;;1.38;;
11490;SDS011;5802;52.832;4.758;2023-04-24T06:43:11;1.60;;;1.30;;
11490;SDS011;5802;52.832;4.758;2023-04-24T06:45:39;1.90;;;1.50;;
11490;SDS011;5802;52.832;4.758;2023-04-24T06:48:08;3.25;;;1.35;;
11490;SDS011;5802;52.832;4.758;2023-04-24T06:53:18;2.28;;;1.40;;
11490;SDS011;5802;52.832;4.758;2023-04-24T06:55:45;2.75;;;1.67;;
11490;SDS011;5802;52.832;4.758;2023-04-24T06:58:11;4.30;;;1.50;;
11490;SDS011;5802;52.832;4.758;2023-04-24T07:00:39;2.78;;;1.45;;
11490;SDS011;5802;52.832;4.758;2023-04-24T07:03:05;2.58;;;1.25;;
11490;SDS011;5802;52.832;4.758;2023-04-24T07:05:32;2.03;;;1.50;;
11490;SDS011;5802;52.832;4.758;2023-04-24T07:08:01;3.67;;;1.50;;
11490;SDS011;5802;52.832;4.758;2023-04-24T07:10:28;3.03;;;1.50;;
11490;SDS011;5802;52.832;4.758;2023-04-24T07:12:55;2.28;;;1.40;;
11490;SDS011;5802;52.832;4.758;2023-04-24T07:15:22;1.70;;;1.50;;
11490;SDS011;5802;52.832;4.758;2023-04-24T07:17:49;3.72;;;1.60;;
11490;SDS011;5802;52.832;4.758;2023-04-24T07:20:16;1.65;;;1.25;;
11490;SDS011;5802;52.832;4.758;2023-04-24T07:22:42;2.05;;;1.50;;
11490;SDS011;5802;52.832;4.758;2023-04-24T07:25:11;2.15;;;1.33;;
11490;SDS011;5802;52.832;4.758;2023-04-24T07:27:37;2.30;;;1.40;;
11490;SDS011;5802;52.832;4.758;2023-04-24T07:30:05;2.50;;;1.50;;
11490;SDS011;5802;52.832;4.758;2023-04-24T07:32:32;2.83;;;1.63;;
11490;SDS011;5802;52.832;4.758;2023-04-24T07:34:59;2.70;;;1.33;;
11490;SDS011;5802;52.832;4.758;2023-04-24T07:37:25;2.30;;;1.70;;
11490;SDS011;5802;52.832;4.758;2023-04-24T07:39:52;2.15;;;1.45;;
11490;SDS011;5802;52.832;4.758;2023-04-24T07:42:20;2.33;;;1.50;;
11490;SDS011;5802;52.832;4.758;2023-04-24T07:44:47;3.15;;;1.30;;
11490;SDS011;5802;52.832;4.758;2023-04-24T07:47:14;2.78;;;1.58;;
11490;SDS011;5802;52.832;4.758;2023-04-24T07:49:41;2.40;;;1.30;;
11490;SDS011;5802;52.832;4.758;2023-04-24T07:52:08;2.45;;;1.25;;
11490;SDS011;5802;52.832;4.758;2023-04-24T07:54:34;3.15;;;1.20;;
11490;SDS011;5802;52.832;4.758;2023-04-24T07:57:02;2.97;;;1.63;;
11490;SDS011;5802;52.832;4.758;2023-04-24T07:59:30;2.58;;;1.40;;
11490;SDS011;5802;52.832;4.758;2023-04-24T08:01:57;3.10;;;1.60;;
11490;SDS011;5802;52.832;4.758;2023-04-24T08:04:23;4.40;;;1.60;;
11490;SDS011;5802;52.832;4.758;2023-04-24T08:06:50;2.28;;;1.50;;
11490;SDS011;5802;52.832;4.758;2023-04-24T08:09:16;1.85;;;1.40;;
11490;SDS011;5802;52.832;4.758;2023-04-24T08:11:43;2.63;;;1.55;;
11490;SDS011;5802;52.832;4.758;2023-04-24T08:14:10;3.15;;;1.58;;
11490;SDS011;5802;52.832;4.758;2023-04-24T08:16:39;2.55;;;1.40;;
11490;SDS011;5802;52.832;4.758;2023-04-24T08:19:06;3.60;;;1.40;;
11490;SDS011;5802;52.832;4.758;2023-04-24T08:21:33;2.22;;;1.10;;
11490;SDS011;5802;52.832;4.758;2023-04-24T08:24:00;3.42;;;1.40;;
11490;SDS011;5802;52.832;4.758;2023-04-24T08:26:30;3.05;;;1.42;;
11490;SDS011;5802;52.832;4.758;2023-04-24T08:28:56;2.65;;;1.35;;
11490;SDS011;5802;52.832;4.758;2023-04-24T08:31:23;3.60;;;1.45;;
11490;SDS011;5802;52.832;4.758;2023-04-24T08:33:52;3.10;;;1.42;;
11490;SDS011;5802;52.832;4.758;2023-04-24T08:36:19;3.05;;;1.30;;
11490;SDS011;5802;52.832;4.758;2023-04-24T08:38:45;2.55;;;1.65;;
11490;SDS011;5802;52.832;4.758;2023-04-24T08:41:12;4.13;;;1.33;;
11490;SDS011;5802;52.832;4.758;2023-04-24T08:43:41;2.95;;;1.50;;
11490;SDS011;5802;52.832;4.758;2023-04-24T08:46:08;1.95;;;1.40;;
11490;SDS011;5802;52.832;4.758;2023-04-24T08:48:35;3.08;;;1.58;;
11490;SDS011;5802;52.832;4.758;2023-04-24T08:51:04;2.20;;;1.40;;
11490;SDS011;5802;52.832;4.758;2023-04-24T08:53:34;2.95;;;1.40;;
11490;SDS011;5802;52.832;4.758;2023-04-24T08:56:01;3.63;;;1.48;;
11490;SDS011;5802;52.832;4.758;2023-04-24T08:58:28;2.65;;;1.50;;
11490;SDS011;5802;52.832;4.758;2023-04-24T09:00:56;3.92;;;1.50;;
11490;SDS011;5802;52.832;4.758;2023-04-24T09:03:24;4.10;;;1.40;;
11490;SDS011;5802;52.832;4.758;2023-04-24T09:05:53;5.65;;;1.52;;
11490;SDS011;5802;52.832;4.758;2023-04-24T09:08:24;4.45;;;1.30;;
11490;SDS011;5802;52.832;4.758;2023-04-24T09:10:52;2.72;;;1.17;;
11490;SDS011;5802;52.832;4.758;2023-04-24T09:13:19;2.28;;;1.25;;
11490;SDS011;5802;52.832;4.758;2023-04-24T09:15:46;6.78;;;1.73;;
11490;SDS011;5802;52.832;4.758;2023-04-24T09:18:13;2.88;;;1.50;;
11490;SDS011;5802;52.832;4.758;2023-04-24T09:23:26;3.08;;;1.30;;
11490;SDS011;5802;52.832;4.758;2023-04-24T09:25:54;2.33;;;1.40;;
11490;SDS011;5802;52.832;4.758;2023-04-24T09:28:24;7.80;;;1.60;;
11490;SDS011;5802;52.832;4.758;2023-04-24T09:31:01;5.22;;;1.63;;
11490;SDS011;5802;52.832;4.758;2023-04-24T09:33:29;3.67;;;1.52;;
11490;SDS011;5802;52.832;4.758;2023-04-24T09:35:56;6.45;;;1.80;;
11490;SDS011;5802;52.832;4.758;2023-04-24T09:38:31;5.40;;;1.55;;
11490;SDS011;5802;52.832;4.758;2023-04-24T09:41:00;6.75;;;1.48;;
11490;SDS011;5802;52.832;4.758;2023-04-24T09:43:29;2.85;;;1.42;;
11490;SDS011;5802;52.832;4.758;2023-04-24T09:45:56;4.28;;;1.40;;
11490;SDS011;5802;52.832;4.758;2023-04-24T09:48:30;2.40;;;1.50;;
11490;SDS011;5802;52.832;4.758;2023-04-24T09:50:57;3.92;;;1.25;;
11490;SDS011;5802;52.832;4.758;2023-04-24T09:53:24;5.97;;;1.83;;
11490;SDS011;5802;52.832;4.758;2023-04-24T09:55:53;4.05;;;1.40;;
11490;SDS011;5802;52.832;4.758;2023-04-24T09:58:24;2.97;;;1.45;;
11490;SDS011;5802;52.832;4.758;2023-04-24T10:00:53;6.55;;;1.75;;
11490;SDS011;5802;52.832;4.758;2023-04-24T10:03:20;4.75;;;1.60;;
11490;SDS011;5802;52.832;4.758;2023-04-24T10:05:51;2.88;;;1.33;;
11490;SDS011;5802;52.832;4.758;2023-04-24T10:08:18;4.75;;;1.45;;
11490;SDS011;5802;52.832;4.758;2023-04-24T10:10:45;2.08;;;1.05;;
11490;SDS011;5802;52.832;4.758;2023-04-24T10:13:14;5.22;;;1.20;;
11490;SDS011;5802;52.832;4.758;2023-04-24T10:15:41;2.80;;;1.35;;
11490;SDS011;5802;52.832;4.758;2023-04-24T10:18:08;2.63;;;1.20;;
11490;SDS011;5802;52.832;4.758;2023-04-24T10:20:36;4.03;;;1.45;;
11490;SDS011;5802;52.832;4.758;2023-04-24T10:23:04;4.90;;;1.40;;
11490;SDS011;5802;52.832;4.758;2023-04-24T10:25:32;4.95;;;1.65;;
11490;SDS011;5802;52.832;4.758;2023-04-24T10:28:00;2.22;;;1.38;;
11490;SDS011;5802;52.832;4.758;2023-04-24T10:30:29;6.40;;;1.20;;
11490;SDS011;5802;52.832;4.758;2023-04-24T10:33:00;4.43;;;1.42;;
11490;SDS011;5802;52.832;4.758;2023-04-24T10:35:27;4.10;;;1.20;;
11490;SDS011;5802;52.832;4.758;2023-04-24T10:37:58;4.53;;;1.48;;
11490;SDS011;5802;52.832;4.758;2023-04-24T10:40:30;3.75;;;1.20;;
11490;SDS011;5802;52.832;4.758;2023-04-24T10:42:58;2.50;;;1.27;;
11490;SDS011;5802;52.832;4.758;2023-04-24T10:45:25;5.00;;;1.58;;
11490;SDS011;5802;52.832;4.758;2023-04-24T10:47:54;3.25;;;1.30;;
11490;SDS011;5802;52.832;4.758;2023-04-24T10:50:25;1.98;;;1.10;;
11490;SDS011;5802;52.832;4.758;2023-04-24T10:52:52;3.58;;;1.60;;
11490;SDS011;5802;52.832;4.758;2023-04-24T10:55:41;3.13;;;1.20;;
11490;SDS011;5802;52.832;4.758;2023-04-24T10:58:10;5.90;;;1.33;;
11490;SDS011;5802;52.832;4.758;2023-04-24T11:00:37;2.85;;;1.05;;
11490;SDS011;5802;52.832;4.758;2023-04-24T11:03:06;4.68;;;1.73;;
11490;SDS011;5802;52.832;4.758;2023-04-24T11:05:55;4.07;;;1.23;;
11490;SDS011;5802;52.832;4.758;2023-04-24T11:08:23;2.95;;;1.00;;
11490;SDS011;5802;52.832;4.758;2023-04-24T11:10:55;2.42;;;1.38;;
11490;SDS011;5802;52.832;4.758;2023-04-24T11:13:27;3.60;;;1.30;;
11490;SDS011;5802;52.832;4.758;2023-04-24T11:16:20;4.40;;;1.20;;
11490;SDS011;5802;52.832;4.758;2023-04-24T11:18:59;4.53;;;1.30;;
11490;SDS011;5802;52.832;4.758;2023-04-24T11:21:30;3.05;;;1.20;;
11490;SDS011;5802;52.832;4.758;2023-04-24T11:23:58;2.90;;;1.13;;
11490;SDS011;5802;52.832;4.758;2023-04-24T11:26:24;3.92;;;1.10;;
11490;SDS011;5802;52.832;4.758;2023-04-24T11:29:05;3.67;;;1.52;;
11490;SDS011;5802;52.832;4.758;2023-04-24T11:31:37;4.95;;;1.02;;
11490;SDS011;5802;52.832;4.758;2023-04-24T11:34:12;2.05;;;1.00;;
11490;SDS011;5802;52.832;4.758;2023-04-24T11:36:40;3.85;;;1.30;;
11490;SDS011;5802;52.832;4.758;2023-04-24T11:39:11;2.58;;;1.10;;
11490;SDS011;5802;52.832;4.758;2023-04-24T11:41:38;3.22;;;1.35;;
11490;SDS011;5802;52.832;4.758;2023-04-24T11:44:05;3.53;;;1.25;;
11490;SDS011;5802;52.832;4.758;2023-04-24T11:46:35;3.33;;;1.13;;
11490;SDS011;5802;52.832;4.758;2023-04-24T11:49:02;2.28;;;0.82;;
11490;SDS011;5802;52.832;4.758;2023-04-24T11:51:31;2.95;;;1.38;;
11490;SDS011;5802;52.832;4.758;2023-04-24T11:53:58;1.40;;;0.90;;
11490;SDS011;5802;52.832;4.758;2023-04-24T11:56:25;1.55;;;0.90;;
11490;SDS011;5802;52.832;4.758;2023-04-24T11:58:52;1.02;;;0.93;;
11490;SDS011;5802;52.832;4.758;2023-04-24T12:01:19;1.38;;;0.80;;
11490;SDS011;5802;52.832;4.758;2023-04-24T12:03:47;4.88;;;1.30;;
11490;SDS011;5802;52.832;4.758;2023-04-24T12:06:16;4.25;;;1.10;;
11490;SDS011;5802;52.832;4.758;2023-04-24T12:08:46;1.80;;;1.00;;
11490;SDS011;5802;52.832;4.758;2023-04-24T12:11:14;1.58;;;1.00;;
11490;SDS011;5802;52.832;4.758;2023-04-24T12:13:42;3.47;;;1.00;;
11490;SDS011;5802;52.832;4.758;2023-04-24T12:16:09;1.33;;;0.95;;
11490;SDS011;5802;52.832;4.758;2023-04-24T12:18:40;2.05;;;1.20;;
11490;SDS011;5802;52.832;4.758;2023-04-24T12:21:14;2.05;;;1.00;;
11490;SDS011;5802;52.832;4.758;2023-04-24T12:23:46;5.38;;;1.30;;
11490;SDS011;5802;52.832;4.758;2023-04-24T12:26:16;2.53;;;1.05;;
11490;SDS011;5802;52.832;4.758;2023-04-24T12:28:46;3.67;;;1.17;;
11490;SDS011;5802;52.832;4.758;2023-04-24T12:31:14;2.47;;;1.17;;
11490;SDS011;5802;52.832;4.758;2023-04-24T12:33:41;2.72;;;1.33;;
11490;SDS011;5802;52.832;4.758;2023-04-24T12:36:09;3.08;;;1.17;;
11490;SDS011;5802;52.832;4.758;2023-04-24T12:38:37;1.83;;;1.02;;
11490;SDS011;5802;52.832;4.758;2023-04-24T12:41:08;2.38;;;1.20;;
11490;SDS011;5802;52.832;4.758;2023-04-24T12:43:35;7.60;;;1.33;;
11490;SDS011;5802;52.832;4.758;2023-04-24T12:46:02;2.17;;;1.08;;
11490;SDS011;5802;52.832;4.758;2023-04-24T12:48:30;2.72;;;1.20;;
11490;SDS011;5802;52.832;4.758;2023-04-24T12:50:57;3.05;;;1.20;;
11490;SDS011;5802;52.832;4.758;2023-04-24T12:53:26;5.28;;;1.08;;
11490;SDS011;5802;52.832;4.758;2023-04-24T12:55:54;3.88;;;1.33;;
11490;SDS011;5802;52.832;4.758;2023-04-24T12:58:22;4.78;;;1.60;;
11490;SDS011;5802;52.832;4.758;2023-04-24T13:00:49;8.38;;;1.85;;
11490;SDS011;5802;52.832;4.758;2023-04-24T13:03:16;3.72;;;1.50;;
11490;SDS011;5802;52.832;4.758;2023-04-24T13:05:43;10.05;;;2.13;;
11490;SDS011;5802;52.832;4.758;2023-04-24T13:08:09;7.18;;;1.75;;
11490;SDS011;5802;52.832;4.758;2023-04-24T13:10:37;5.63;;;1.50;;
11490;SDS011;5802;52.832;4.758;2023-04-24T13:13:05;6.45;;;1.60;;
11490;SDS011;5802;52.832;4.758;2023-04-24T13:15:33;6.90;;;1.90;;
11490;SDS011;5802;52.832;4.758;2023-04-24T13:18:00;5.32;;;1.92;;
11490;SDS011;5802;52.832;4.758;2023-04-24T13:20:27;8.88;;;1.85;;
11490;SDS011;5802;52.832;4.758;2023-04-24T13:22:53;5.07;;;1.58;;
11490;SDS011;5802;52.832;4.758;2023-04-24T13:25:20;7.05;;;1.83;;
11490;SDS011;5802;52.832;4.758;2023-04-24T13:27:48;5.38;;;1.60;;
11490;SDS011;5802;52.832;4.758;2023-04-24T13:30:15;4.82;;;1.65;;
11490;SDS011;5802;52.832;4.758;2023-04-24T13:32:43;4.00;;;1.42;;
11490;SDS011;5802;52.832;4.758;2023-04-24T13:35:10;4.90;;;1.45;;
11490;SDS011;5802;52.832;4.758;2023-04-24T13:37:37;5.93;;;1.73;;
11490;SDS011;5802;52.832;4.758;2023-04-24T13:40:07;3.47;;;1.75;;
11490;SDS011;5802;52.832;4.758;2023-04-24T13:42:34;7.97;;;1.77;;
11490;SDS011;5802;52.832;4.758;2023-04-24T13:45:01;5.28;;;1.40;;
11490;SDS011;5802;52.832;4.758;2023-04-24T13:47:28;5.78;;;1.92;;
11490;SDS011;5802;52.832;4.758;2023-04-24T13:49:56;10.57;;;1.95;;
11490;SDS011;5802;52.832;4.758;2023-04-24T13:52:23;10.40;;;1.85;;
11490;SDS011;5802;52.832;4.758;2023-04-24T13:54:50;9.32;;;2.08;;
11490;SDS011;5802;52.832;4.758;2023-04-24T13:57:17;7.95;;;1.67;;
11490;SDS011;5802;52.832;4.758;2023-04-24T13:59:44;4.93;;;1.65;;
11490;SDS011;5802;52.832;4.758;2023-04-24T14:02:11;8.43;;;1.95;;
11490;SDS011;5802;52.832;4.758;2023-04-24T14:04:37;8.73;;;2.10;;
11490;SDS011;5802;52.832;4.758;2023-04-24T14:07:05;4.95;;;2.03;;
11490;SDS011;5802;52.832;4.758;2023-04-24T14:09:33;6.88;;;2.08;;
11490;SDS011;5802;52.832;4.758;2023-04-24T14:11:59;6.32;;;2.40;;
11490;SDS011;5802;52.832;4.758;2023-04-24T14:14:27;5.35;;;2.28;;
11490;SDS011;5802;52.832;4.758;2023-04-24T14:16:54;8.40;;;2.42;;
11490;SDS011;5802;52.832;4.758;2023-04-24T14:19:21;7.20;;;2.33;;
11490;SDS011;5802;52.832;4.758;2023-04-24T14:21:48;8.40;;;2.72;;
11490;SDS011;5802;52.832;4.758;2023-04-24T14:24:16;8.15;;;2.25;;
11490;SDS011;5802;52.832;4.758;2023-04-24T14:26:43;9.10;;;2.47;;
11490;SDS011;5802;52.832;4.758;2023-04-24T14:29:10;8.30;;;2.33;;
11490;SDS011;5802;52.832;4.758;2023-04-24T14:31:36;6.35;;;2.42;;
11490;SDS011;5802;52.832;4.758;2023-04-24T14:34:03;7.05;;;2.70;;
11490;SDS011;5802;52.832;4.758;2023-04-24T14:36:30;8.18;;;2.58;;
11490;SDS011;5802;52.832;4.758;2023-04-24T14:38:57;5.10;;;1.90;;
11490;SDS011;5802;52.832;4.758;2023-04-24T14:41:25;5.80;;;2.28;;
11490;SDS011;5802;52.832;4.758;2023-04-24T14:43:51;6.68;;;2.85;;
11490;SDS011;5802;52.832;4.758;2023-04-24T14:46:18;9.50;;;2.67;;
11490;SDS011;5802;52.832;4.758;2023-04-24T14:48:45;5.40;;;2.28;;
11490;SDS011;5802;52.832;4.758;2023-04-24T14:51:12;10.88;;;2.60;;
11490;SDS011;5802;52.832;4.758;2023-04-24T14:53:39;4.72;;;2.13;;
11490;SDS011;5802;52.832;4.758;2023-04-24T14:56:05;5.05;;;1.92;;
11490;SDS011;5802;52.832;4.758;2023-04-24T14:58:33;5.32;;;2.10;;
11490;SDS011;5802;52.832;4.758;2023-04-24T15:01:00;5.53;;;2.13;;
11490;SDS011;5802;52.832;4.758;2023-04-24T15:03:27;7.88;;;2.30;;
11490;SDS011;5802;52.832;4.758;2023-04-24T15:05:54;4.97;;;2.17;;
11490;SDS011;5802;52.832;4.758;2023-04-24T15:08:21;7.53;;;2.47;;